createdAt,value
2019-04-01T00:00:22.413Z,0.00
2019-04-01T00:01:22.477Z,0.00
2019-04-01T00:02:22.407Z,0.00
2019-04-01T00:03:22.427Z,0.00
2019-04-01T00:04:22.402Z,0.00
2019-04-01T00:05:22.368Z,0.00
2019-04-01T00:06:22.344Z,0.00
2019-04-01T00:07:22.379Z,0.00
2019-04-01T00:08:22.329Z,0.00
2019-04-01T00:09:22.319Z,0.00
2019-04-01T00:10:22.347Z,0.00
2019-04-01T00:11:22.292Z,0.00
2019-04-01T00:12:22.282Z,0.00
2019-04-01T00:13:22.355Z,0.00
2019-04-01T00:14:22.267Z,0.00
2019-04-01T00:15:22.261Z,0.00
2019-04-01T00:16:22.238Z,0.00
2019-04-01T00:17:22.256Z,0.00
2019-04-01T00:18:22.218Z,0.00
2019-04-01T00:19:22.263Z,0.00
2019-04-01T00:20:22.201Z,0.00
2019-04-01T00:21:22.198Z,0.00
2019-04-01T00:22:22.165Z,0.00
2019-04-01T00:23:22.165Z,0.00
2019-04-01T00:24:22.145Z,0.00
2019-04-01T00:25:22.246Z,0.00
2019-04-01T00:26:22.162Z,0.00
2019-04-01T00:27:22.136Z,0.00
2019-04-01T00:28:22.123Z,0.00
2019-04-01T00:29:22.095Z,0.00
2019-04-01T00:30:22.085Z,0.00
2019-04-01T00:31:22.121Z,0.00
2019-04-01T00:32:22.063Z,0.00
2019-04-01T00:33:22.048Z,0.00
2019-04-01T00:34:22.040Z,0.00
2019-04-01T00:35:22.047Z,0.00
2019-04-01T00:36:22.021Z,0.00
2019-04-01T00:37:22.055Z,0.00
2019-04-01T00:38:21.993Z,0.00
2019-04-01T00:39:21.984Z,0.00
2019-04-01T00:40:21.974Z,0.00
2019-04-01T00:41:21.963Z,0.00
2019-04-01T00:42:21.975Z,0.00
2019-04-01T00:43:21.977Z,0.00
2019-04-01T00:44:21.964Z,0.00
2019-04-01T00:45:21.913Z,0.00
2019-04-01T00:46:21.906Z,0.00
2019-04-01T00:47:21.893Z,0.00
2019-04-01T00:48:21.891Z,0.00
2019-04-01T00:49:21.919Z,0.00
2019-04-01T00:50:21.892Z,0.00
2019-04-01T00:51:21.849Z,0.00
2019-04-01T00:52:21.838Z,0.00
2019-04-01T00:53:21.826Z,0.00
2019-04-01T00:54:21.816Z,0.00
2019-04-01T00:55:21.841Z,0.00
2019-04-01T00:56:21.796Z,0.00
2019-04-01T00:57:21.783Z,0.00
2019-04-01T00:58:21.781Z,0.00
2019-04-01T00:59:21.767Z,0.00
2019-04-01T01:00:21.755Z,0.00
2019-04-01T01:01:21.785Z,0.00
2019-04-01T01:02:21.782Z,0.00
2019-04-01T01:03:21.726Z,0.00
2019-04-01T01:04:21.710Z,0.00
2019-04-01T01:05:21.707Z,0.00
2019-04-01T01:06:21.694Z,0.00
2019-04-01T01:07:21.744Z,0.00
2019-04-01T01:08:21.672Z,0.00
2019-04-01T01:09:21.656Z,0.00
2019-04-01T01:10:21.681Z,0.00
2019-04-01T01:11:21.649Z,0.00
2019-04-01T01:12:21.631Z,0.00
2019-04-01T01:13:21.667Z,0.00
2019-04-01T01:14:21.599Z,0.00
2019-04-01T01:15:21.611Z,0.00
2019-04-01T01:16:21.626Z,0.00
2019-04-01T01:17:21.610Z,0.00
2019-04-01T01:18:21.561Z,0.00
2019-04-01T01:19:21.585Z,0.00
2019-04-01T01:20:21.537Z,0.00
2019-04-01T01:21:21.543Z,0.00
2019-04-01T01:22:21.520Z,0.00
2019-04-01T01:23:21.505Z,0.00
2019-04-01T01:24:21.502Z,0.00
2019-04-01T01:25:21.519Z,0.00
2019-04-01T01:26:21.474Z,0.00
2019-04-01T01:27:21.493Z,0.00
2019-04-01T01:28:21.539Z,0.00
2019-04-01T01:29:21.490Z,0.00
2019-04-01T01:30:21.424Z,0.00
2019-04-01T01:31:21.476Z,0.00
2019-04-01T01:32:21.414Z,0.00
2019-04-01T01:33:21.408Z,0.00
2019-04-01T01:34:21.378Z,0.00
2019-04-01T01:35:21.395Z,0.00
2019-04-01T01:36:21.433Z,0.00
2019-04-01T01:37:21.453Z,0.00
2019-04-01T01:38:21.349Z,0.00
2019-04-01T01:39:21.324Z,0.00
2019-04-01T01:40:21.317Z,0.00
2019-04-01T01:41:21.304Z,0.00
2019-04-01T01:42:21.302Z,0.00
2019-04-01T01:43:21.326Z,0.00
2019-04-01T01:44:21.268Z,0.00
2019-04-01T01:45:21.266Z,0.00
2019-04-01T01:46:21.293Z,0.00
2019-04-01T01:47:21.241Z,0.00
2019-04-01T01:48:21.237Z,0.00
2019-04-01T01:49:21.259Z,0.00
2019-04-01T01:50:21.209Z,0.00
2019-04-01T01:51:21.204Z,0.00
2019-04-01T01:52:21.189Z,0.00
2019-04-01T01:53:21.178Z,0.00
2019-04-01T01:54:21.165Z,0.00
2019-04-01T01:55:21.197Z,0.00
2019-04-01T01:56:21.169Z,0.00
2019-04-01T01:57:21.139Z,0.00
2019-04-01T01:58:21.126Z,0.00
2019-04-01T01:59:21.119Z,0.00
2019-04-01T02:00:21.095Z,0.00
2019-04-01T02:01:21.128Z,0.00
2019-04-01T02:02:21.077Z,0.00
2019-04-01T02:03:21.061Z,0.00
2019-04-01T02:04:21.065Z,0.00
2019-04-01T02:05:21.040Z,0.00
2019-04-01T02:06:21.029Z,0.00
2019-04-01T02:07:21.319Z,0.00
2019-04-01T02:08:21.010Z,0.00
2019-04-01T02:09:21.007Z,0.00
2019-04-01T02:10:21.006Z,0.00
2019-04-01T02:11:20.986Z,0.00
2019-04-01T02:12:20.968Z,0.00
2019-04-01T02:13:20.993Z,0.00
2019-04-01T02:14:20.951Z,0.00
2019-04-01T02:15:20.944Z,0.00
2019-04-01T02:16:20.959Z,0.00
2019-04-01T02:17:20.919Z,0.00
2019-04-01T02:18:20.911Z,0.00
2019-04-01T02:19:20.953Z,0.00
2019-04-01T02:20:20.998Z,0.00
2019-04-01T02:21:20.873Z,0.00
2019-04-01T02:22:20.862Z,0.00
2019-04-01T02:23:20.850Z,0.00
2019-04-01T02:24:20.840Z,0.00
2019-04-01T02:25:20.966Z,0.00
2019-04-01T02:26:20.816Z,0.00
2019-04-01T02:27:20.817Z,0.00
2019-04-01T02:28:20.804Z,0.00
2019-04-01T02:29:20.792Z,0.00
2019-04-01T02:30:20.810Z,0.00
2019-04-01T02:31:20.815Z,0.00
2019-04-01T02:32:20.757Z,0.00
2019-04-01T02:33:20.760Z,0.00
2019-04-01T02:34:20.761Z,0.00
2019-04-01T02:35:20.720Z,0.00
2019-04-01T02:36:20.744Z,0.00
2019-04-01T02:37:20.767Z,0.00
2019-04-01T02:38:20.695Z,0.00
2019-04-01T02:39:20.685Z,0.00
2019-04-01T02:40:22.061Z,0.00
2019-04-01T02:41:20.670Z,0.00
2019-04-01T02:42:20.646Z,0.00
2019-04-01T02:43:20.695Z,0.00
2019-04-01T02:44:20.626Z,0.00
2019-04-01T02:45:20.613Z,0.00
2019-04-01T02:46:20.628Z,0.00
2019-04-01T02:47:20.611Z,0.00
2019-04-01T02:48:20.593Z,0.00
2019-04-01T02:49:20.617Z,0.00
2019-04-01T02:50:20.596Z,0.00
2019-04-01T02:51:20.568Z,0.00
2019-04-01T02:52:20.549Z,0.00
2019-04-01T02:53:20.531Z,0.00
2019-04-01T02:54:20.526Z,0.00
2019-04-01T02:55:20.550Z,0.00
2019-04-01T02:56:20.500Z,0.00
2019-04-01T02:57:20.487Z,0.00
2019-04-01T02:58:20.486Z,0.00
2019-04-01T02:59:20.471Z,0.00
2019-04-01T03:00:20.461Z,0.00
2019-04-01T03:01:20.485Z,0.00
2019-04-01T03:02:20.434Z,0.00
2019-04-01T03:03:20.416Z,0.00
2019-04-01T03:04:20.407Z,0.00
2019-04-01T03:05:20.399Z,0.00
2019-04-01T03:06:20.386Z,0.00
2019-04-01T03:07:20.426Z,0.00
2019-04-01T03:08:20.362Z,0.00
2019-04-01T03:09:20.417Z,0.00
2019-04-01T03:10:20.358Z,0.00
2019-04-01T03:11:20.338Z,0.00
2019-04-01T03:12:20.355Z,0.00
2019-04-01T03:13:20.434Z,0.00
2019-04-01T03:14:20.298Z,0.00
2019-04-01T03:15:20.296Z,0.00
2019-04-01T03:16:20.273Z,0.00
2019-04-01T03:17:20.288Z,0.00
2019-04-01T03:18:20.271Z,0.00
2019-04-01T03:19:20.296Z,0.00
2019-04-01T03:20:20.238Z,0.00
2019-04-01T03:21:20.222Z,0.00
2019-04-01T03:22:20.232Z,0.00
2019-04-01T03:23:20.201Z,0.00
2019-04-01T03:24:20.242Z,0.00
2019-04-01T03:25:20.245Z,0.00
2019-04-01T03:26:20.173Z,0.00
2019-04-01T03:27:20.164Z,0.00
2019-04-01T03:28:20.147Z,0.00
2019-04-01T03:29:20.174Z,0.00
2019-04-01T03:30:20.139Z,0.00
2019-04-01T03:31:20.157Z,0.00
2019-04-01T03:32:20.245Z,0.00
2019-04-01T03:33:20.266Z,0.00
2019-04-01T03:34:20.105Z,0.00
2019-04-01T03:35:20.097Z,0.00
2019-04-01T03:36:20.060Z,0.00
2019-04-01T03:37:20.089Z,0.00
2019-04-01T03:38:20.035Z,0.00
2019-04-01T03:39:20.020Z,0.00
2019-04-01T03:40:20.040Z,0.00
2019-04-01T03:41:19.999Z,0.00
2019-04-01T03:42:19.992Z,0.00
2019-04-01T03:43:20.035Z,0.00
2019-04-01T03:44:19.969Z,0.00
2019-04-01T03:45:19.979Z,0.00
2019-04-01T03:46:19.945Z,0.00
2019-04-01T03:47:19.937Z,0.00
2019-04-01T03:48:19.941Z,0.00
2019-04-01T03:49:19.975Z,0.00
2019-04-01T03:50:19.902Z,0.00
2019-04-01T03:51:19.901Z,0.00
2019-04-01T03:52:19.879Z,0.00
2019-04-01T03:53:19.868Z,0.00
2019-04-01T03:54:19.858Z,0.00
2019-04-01T03:55:19.925Z,0.00
2019-04-01T03:56:19.840Z,0.00
2019-04-01T03:57:19.828Z,0.00
2019-04-01T03:58:19.820Z,0.00
2019-04-01T03:59:19.804Z,0.00
2019-04-01T04:00:19.809Z,0.00
2019-04-01T04:01:20.106Z,0.00
2019-04-01T04:02:19.772Z,0.00
2019-04-01T04:03:19.777Z,0.00
2019-04-01T04:04:19.750Z,0.00
2019-04-01T04:05:19.745Z,0.00
2019-04-01T04:06:19.750Z,0.00
2019-04-01T04:07:19.765Z,0.00
2019-04-01T04:08:19.708Z,0.00
2019-04-01T04:09:19.701Z,0.00
2019-04-01T04:10:19.690Z,0.00
2019-04-01T04:11:19.684Z,0.00
2019-04-01T04:12:19.664Z,0.00
2019-04-01T04:13:19.826Z,0.00
2019-04-01T04:14:19.650Z,0.00
2019-04-01T04:15:19.673Z,0.00
2019-04-01T04:16:19.636Z,0.00
2019-04-01T04:17:19.640Z,0.00
2019-04-01T04:18:19.611Z,0.00
2019-04-01T04:19:19.630Z,0.00
2019-04-01T04:20:19.677Z,0.00
2019-04-01T04:21:23.654Z,0.00
2019-04-01T04:22:19.563Z,0.00
2019-04-01T04:23:19.554Z,0.00
2019-04-01T04:24:19.554Z,0.00
2019-04-01T04:25:19.580Z,0.00
2019-04-01T04:26:19.595Z,0.00
2019-04-01T04:27:19.530Z,0.00
2019-04-01T04:28:19.641Z,0.00
2019-04-01T04:29:19.486Z,0.00
2019-04-01T04:30:19.487Z,0.00
2019-04-01T04:31:19.504Z,0.00
2019-04-01T04:32:19.570Z,0.00
2019-04-01T04:33:19.453Z,0.00
2019-04-01T04:34:19.438Z,0.00
2019-04-01T04:35:19.418Z,0.00
2019-04-01T04:36:19.417Z,0.00
2019-04-01T04:37:19.459Z,0.00
2019-04-01T04:38:19.386Z,0.00
2019-04-01T04:39:19.385Z,0.00
2019-04-01T04:40:19.361Z,0.00
2019-04-01T04:41:19.351Z,0.00
2019-04-01T04:42:19.338Z,0.00
2019-04-01T04:43:19.358Z,0.00
2019-04-01T04:44:19.318Z,0.00
2019-04-01T04:45:19.315Z,0.00
2019-04-01T04:46:21.307Z,0.00
2019-04-01T04:47:19.291Z,0.00
2019-04-01T04:48:19.275Z,0.00
2019-04-01T04:49:19.559Z,0.00
2019-04-01T04:50:19.254Z,0.00
2019-04-01T04:51:19.241Z,0.00
2019-04-01T04:52:19.230Z,0.00
2019-04-01T04:53:19.235Z,0.00
2019-04-01T04:54:19.215Z,0.00
2019-04-01T04:55:19.253Z,0.00
2019-04-01T04:56:19.263Z,0.00
2019-04-01T04:57:20.500Z,0.00
2019-04-01T04:58:19.182Z,0.00
2019-04-01T04:59:19.183Z,0.00
2019-04-01T05:00:19.216Z,0.00
2019-04-01T05:01:19.194Z,0.00
2019-04-01T05:02:19.210Z,5.62
2019-04-01T05:03:19.164Z,5.62
2019-04-01T05:04:19.114Z,5.62
2019-04-01T05:05:19.167Z,5.62
2019-04-01T05:06:19.102Z,5.62
2019-04-01T05:07:19.195Z,5.62
2019-04-01T05:08:19.085Z,11.25
2019-04-01T05:09:19.061Z,11.25
2019-04-01T05:10:19.060Z,11.25
2019-04-01T05:11:19.089Z,11.25
2019-04-01T05:12:19.028Z,16.88
2019-04-01T05:13:19.077Z,16.88
2019-04-01T05:14:19.001Z,16.88
2019-04-01T05:15:18.987Z,16.88
2019-04-01T05:16:18.992Z,22.50
2019-04-01T05:17:19.020Z,22.50
2019-04-01T05:18:18.965Z,22.50
2019-04-01T05:19:18.997Z,28.12
2019-04-01T05:20:18.939Z,28.12
2019-04-01T05:21:18.935Z,28.12
2019-04-01T05:22:18.923Z,33.75
2019-04-01T05:23:18.914Z,33.75
2019-04-01T05:24:18.901Z,39.38
2019-04-01T05:25:18.930Z,39.38
2019-04-01T05:26:18.879Z,39.38
2019-04-01T05:27:18.926Z,45.00
2019-04-01T05:28:18.844Z,45.00
2019-04-01T05:29:18.856Z,50.62
2019-04-01T05:30:18.847Z,50.62
2019-04-01T05:31:18.852Z,50.62
2019-04-01T05:32:18.805Z,56.25
2019-04-01T05:33:18.802Z,56.25
2019-04-01T05:34:18.791Z,61.88
2019-04-01T05:35:18.775Z,61.88
2019-04-01T05:36:18.771Z,67.50
2019-04-01T05:37:18.822Z,67.50
2019-04-01T05:38:18.754Z,73.12
2019-04-01T05:39:18.749Z,73.12
2019-04-01T05:40:18.730Z,78.75
2019-04-01T05:41:18.713Z,78.75
2019-04-01T05:42:18.751Z,84.38
2019-04-01T05:43:18.763Z,84.38
2019-04-01T05:44:18.682Z,84.38
2019-04-01T05:45:18.709Z,90.00
2019-04-01T05:46:18.693Z,95.62
2019-04-01T05:47:18.644Z,95.62
2019-04-01T05:48:18.638Z,101.25
2019-04-01T05:49:18.671Z,101.25
2019-04-01T05:50:18.649Z,101.25
2019-04-01T05:51:18.631Z,106.88
2019-04-01T05:52:18.609Z,112.50
2019-04-01T05:53:18.595Z,112.50
2019-04-01T05:54:18.568Z,118.12
2019-04-01T05:55:18.673Z,118.12
2019-04-01T05:56:18.545Z,118.12
2019-04-01T05:57:18.543Z,123.75
2019-04-01T05:58:18.545Z,123.75
2019-04-01T05:59:18.519Z,129.38
2019-04-01T06:00:20.811Z,129.38
2019-04-01T06:01:18.563Z,135.00
2019-04-01T06:02:18.494Z,135.00
2019-04-01T06:03:18.471Z,135.00
2019-04-01T06:04:18.460Z,140.62
2019-04-01T06:05:18.453Z,140.62
2019-04-01T06:06:18.437Z,146.25
2019-04-01T06:07:18.463Z,146.25
2019-04-01T06:08:18.442Z,146.25
2019-04-01T06:09:18.407Z,151.88
2019-04-01T06:10:18.407Z,151.88
2019-04-01T06:11:18.382Z,157.50
2019-04-01T06:12:18.377Z,157.50
2019-04-01T06:13:18.414Z,157.50
2019-04-01T06:14:18.345Z,157.50
2019-04-01T06:15:18.342Z,157.50
2019-04-01T06:16:18.334Z,163.12
2019-04-01T06:17:18.336Z,163.12
2019-04-01T06:18:18.306Z,163.12
2019-04-01T06:19:18.335Z,168.75
2019-04-01T06:20:18.280Z,168.75
2019-04-01T06:21:18.273Z,168.75
2019-04-01T06:22:18.259Z,174.38
2019-04-01T06:23:18.261Z,174.38
2019-04-01T06:24:18.239Z,174.38
2019-04-01T06:25:18.295Z,180.00
2019-04-01T06:26:18.215Z,180.00
2019-04-01T06:27:18.208Z,180.00
2019-04-01T06:28:18.197Z,185.62
2019-04-01T06:29:18.188Z,185.62
2019-04-01T06:30:18.173Z,185.62
2019-04-01T06:31:18.226Z,191.25
2019-04-01T06:32:18.173Z,191.25
2019-04-01T06:33:18.145Z,191.25
2019-04-01T06:34:18.132Z,196.88
2019-04-01T06:35:18.145Z,196.88
2019-04-01T06:36:18.115Z,196.88
2019-04-01T06:37:18.143Z,202.50
2019-04-01T06:38:18.089Z,202.50
2019-04-01T06:39:18.076Z,202.50
2019-04-01T06:40:18.088Z,208.12
2019-04-01T06:41:18.059Z,208.12
2019-04-01T06:42:18.044Z,208.12
2019-04-01T06:43:18.086Z,208.12
2019-04-01T06:44:18.043Z,213.75
2019-04-01T06:45:18.002Z,213.75
2019-04-01T06:46:18.003Z,213.75
2019-04-01T06:47:18.027Z,213.75
2019-04-01T06:48:17.985Z,219.38
2019-04-01T06:49:20.304Z,219.38
2019-04-01T06:50:17.951Z,219.38
2019-04-01T06:51:17.947Z,225.00
2019-04-01T06:52:17.932Z,225.00
2019-04-01T06:53:17.990Z,225.00
2019-04-01T06:54:17.932Z,225.00
2019-04-01T06:55:17.966Z,225.00
2019-04-01T06:56:17.885Z,230.62
2019-04-01T06:57:17.872Z,230.62
2019-04-01T06:58:17.894Z,230.62
2019-04-01T06:59:17.852Z,230.62
2019-04-01T07:00:17.843Z,236.25
2019-04-01T07:01:17.885Z,236.25
2019-04-01T07:02:17.821Z,236.25
2019-04-01T07:03:18.849Z,236.25
2019-04-01T07:04:17.798Z,236.25
2019-04-01T07:05:17.786Z,241.88
2019-04-01T07:06:17.779Z,241.88
2019-04-01T07:07:26.554Z,241.88
2019-04-01T07:08:17.748Z,241.88
2019-04-01T07:09:17.737Z,247.50
2019-04-01T07:10:17.726Z,247.50
2019-04-01T07:11:17.727Z,247.50
2019-04-01T07:12:17.703Z,247.50
2019-04-01T07:13:17.885Z,247.50
2019-04-01T07:14:17.693Z,253.12
2019-04-01T07:15:17.686Z,253.12
2019-04-01T07:16:17.705Z,253.12
2019-04-01T07:17:17.661Z,253.12
2019-04-01T07:18:17.642Z,258.75
2019-04-01T07:19:17.661Z,258.75
2019-04-01T07:20:17.635Z,258.75
2019-04-01T07:21:17.624Z,258.75
2019-04-01T07:22:17.596Z,258.75
2019-04-01T07:23:17.597Z,264.38
2019-04-01T07:24:17.591Z,264.38
2019-04-01T07:25:17.612Z,264.38
2019-04-01T07:26:17.578Z,264.38
2019-04-01T07:27:17.549Z,270.00
2019-04-01T07:28:17.588Z,270.00
2019-04-01T07:29:17.532Z,270.00
2019-04-01T07:30:17.530Z,270.00
2019-04-01T07:31:17.534Z,270.00
2019-04-01T07:32:17.494Z,275.62
2019-04-01T07:33:17.479Z,275.62
2019-04-01T07:34:17.484Z,275.62
2019-04-01T07:35:17.461Z,275.62
2019-04-01T07:36:17.521Z,275.62
2019-04-01T07:37:17.728Z,275.62
2019-04-01T07:38:17.449Z,281.25
2019-04-01T07:39:17.407Z,281.25
2019-04-01T07:40:17.399Z,281.25
2019-04-01T07:41:17.385Z,281.25
2019-04-01T07:42:17.399Z,281.25
2019-04-01T07:43:17.418Z,286.88
2019-04-01T07:44:17.357Z,286.88
2019-04-01T07:45:17.363Z,286.88
2019-04-01T07:46:17.336Z,286.88
2019-04-01T07:47:17.319Z,286.88
2019-04-01T07:48:17.327Z,286.88
2019-04-01T07:49:17.390Z,286.88
2019-04-01T07:50:17.292Z,292.50
2019-04-01T07:51:17.277Z,292.50
2019-04-01T07:52:17.269Z,292.50
2019-04-01T07:53:17.270Z,292.50
2019-04-01T07:54:18.693Z,292.50
2019-04-01T07:55:17.270Z,292.50
2019-04-01T07:56:17.225Z,298.12
2019-04-01T07:57:17.225Z,298.12
2019-04-01T07:58:17.207Z,298.12
2019-04-01T07:59:17.194Z,298.12
2019-04-01T08:00:17.193Z,298.12
2019-04-01T08:01:17.214Z,298.12
2019-04-01T08:02:24.728Z,298.12
2019-04-01T08:03:24.700Z,303.75
2019-04-01T08:04:24.674Z,303.75
2019-04-01T08:05:17.121Z,303.75
2019-04-01T08:06:17.111Z,303.75
2019-04-01T08:07:17.151Z,298.12
2019-04-01T08:08:17.088Z,298.12
2019-04-01T08:09:17.081Z,298.12
2019-04-01T08:10:17.068Z,303.75
2019-04-01T08:11:17.067Z,303.75
2019-04-01T08:12:17.050Z,303.75
2019-04-01T08:13:17.105Z,303.75
2019-04-01T08:14:17.024Z,303.75
2019-04-01T08:15:17.015Z,303.75
2019-04-01T08:16:17.006Z,303.75
2019-04-01T08:17:17.010Z,309.38
2019-04-01T08:18:16.996Z,309.38
2019-04-01T08:19:17.009Z,309.38
2019-04-01T08:20:16.961Z,309.38
2019-04-01T08:21:16.956Z,309.38
2019-04-01T08:22:16.940Z,309.38
2019-04-01T08:23:16.968Z,315.00
2019-04-01T08:24:16.936Z,315.00
2019-04-01T08:25:16.940Z,315.00
2019-04-01T08:26:16.894Z,315.00
2019-04-01T08:27:16.886Z,315.00
2019-04-01T08:28:16.885Z,320.62
2019-04-01T08:29:29.452Z,320.62
2019-04-01T08:30:17.918Z,320.62
2019-04-01T08:31:16.835Z,320.62
2019-04-01T08:32:16.826Z,320.62
2019-04-01T08:33:16.819Z,320.62
2019-04-01T08:34:16.801Z,320.62
2019-04-01T08:35:16.796Z,320.62
2019-04-01T08:36:16.879Z,326.25
2019-04-01T08:37:16.798Z,326.25
2019-04-01T08:38:16.759Z,326.25
2019-04-01T08:39:16.755Z,326.25
2019-04-01T08:40:16.735Z,326.25
2019-04-01T08:41:16.725Z,326.25
2019-04-01T08:42:16.780Z,331.88
2019-04-01T08:43:16.703Z,331.88
2019-04-01T08:44:16.736Z,331.88
2019-04-01T08:45:16.682Z,331.88
2019-04-01T08:46:16.673Z,331.88
2019-04-01T08:47:16.656Z,331.88
2019-04-01T08:48:16.704Z,337.50
2019-04-01T08:49:16.636Z,337.50
2019-04-01T08:50:16.638Z,337.50
2019-04-01T08:51:16.637Z,331.88
2019-04-01T08:52:16.606Z,337.50
2019-04-01T08:53:16.605Z,337.50
2019-04-01T08:54:16.615Z,337.50
2019-04-01T08:55:16.576Z,337.50
2019-04-01T08:56:16.567Z,337.50
2019-04-01T08:57:16.578Z,337.50
2019-04-01T08:58:16.550Z,337.50
2019-04-01T08:59:16.528Z,337.50
2019-04-01T09:00:16.570Z,337.50
2019-04-01T09:01:16.511Z,337.50
2019-04-01T09:02:18.274Z,337.50
2019-04-01T09:03:16.482Z,337.50
2019-04-01T09:04:16.482Z,337.50
2019-04-01T09:05:16.456Z,337.50
2019-04-01T09:06:16.491Z,337.50
2019-04-01T09:07:16.437Z,337.50
2019-04-01T09:08:16.431Z,337.50
2019-04-01T09:09:16.421Z,337.50
2019-04-01T09:10:16.404Z,337.50
2019-04-01T09:11:16.416Z,337.50
2019-04-01T09:12:16.429Z,337.50
2019-04-01T09:13:16.379Z,337.50
2019-04-01T09:14:16.356Z,337.50
2019-04-01T09:15:16.350Z,337.50
2019-04-01T09:16:16.337Z,337.50
2019-04-01T09:17:16.348Z,343.12
2019-04-01T09:18:16.630Z,343.12
2019-04-01T09:19:16.307Z,343.12
2019-04-01T09:20:16.293Z,343.12
2019-04-01T09:21:16.283Z,343.12
2019-04-01T09:22:16.269Z,343.12
2019-04-01T09:23:16.258Z,343.12
2019-04-01T09:24:16.302Z,343.12
2019-04-01T09:25:16.237Z,343.12
2019-04-01T09:26:16.243Z,343.12
2019-04-01T09:27:16.222Z,343.12
2019-04-01T09:28:16.208Z,343.12
2019-04-01T09:29:16.191Z,343.12
2019-04-01T09:30:18.686Z,343.12
2019-04-01T09:31:16.184Z,348.75
2019-04-01T09:32:16.164Z,348.75
2019-04-01T09:33:16.150Z,348.75
2019-04-01T09:34:16.143Z,348.75
2019-04-01T09:35:16.130Z,348.75
2019-04-01T09:36:16.153Z,348.75
2019-04-01T09:37:16.137Z,348.75
2019-04-01T09:38:16.096Z,348.75
2019-04-01T09:39:16.094Z,348.75
2019-04-01T09:40:16.075Z,348.75
2019-04-01T09:41:16.060Z,354.38
2019-04-01T09:42:16.133Z,354.38
2019-04-01T09:43:16.038Z,354.38
2019-04-01T09:44:16.036Z,354.38
2019-04-01T09:45:16.031Z,354.38
2019-04-01T09:46:16.016Z,354.38
2019-04-01T09:47:16.045Z,354.38
2019-04-01T09:48:16.061Z,354.38
2019-04-01T09:49:15.975Z,354.38
2019-04-01T09:50:15.985Z,360.00
2019-04-01T09:51:15.952Z,360.00
2019-04-01T09:52:15.940Z,360.00
2019-04-01T09:53:15.955Z,360.00
2019-04-01T09:54:15.969Z,360.00
2019-04-01T09:55:15.976Z,360.00
2019-04-01T09:56:15.936Z,360.00
2019-04-01T09:57:18.333Z,360.00
2019-04-01T09:58:15.875Z,360.00
2019-04-01T09:59:15.860Z,360.00
2019-04-01T10:00:15.887Z,365.62
2019-04-01T10:01:15.849Z,365.62
2019-04-01T10:02:15.840Z,365.62
2019-04-01T10:03:15.820Z,365.62
2019-04-01T10:04:15.803Z,365.62
2019-04-01T10:05:15.846Z,365.62
2019-04-01T10:06:15.833Z,371.25
2019-04-01T10:07:15.832Z,371.25
2019-04-01T10:08:15.772Z,371.25
2019-04-01T10:09:15.746Z,371.25
2019-04-01T10:10:15.744Z,371.25
2019-04-01T10:11:15.727Z,371.25
2019-04-01T10:12:15.782Z,376.88
2019-04-01T10:13:15.706Z,376.88
2019-04-01T10:14:15.702Z,376.88
2019-04-01T10:15:15.682Z,376.88
2019-04-01T10:16:15.669Z,376.88
2019-04-01T10:17:15.670Z,376.88
2019-04-01T10:18:15.692Z,376.88
2019-04-01T10:19:15.664Z,376.88
2019-04-01T10:20:15.624Z,382.50
2019-04-01T10:21:15.615Z,382.50
2019-04-01T10:22:15.615Z,382.50
2019-04-01T10:23:15.596Z,382.50
2019-04-01T10:24:15.614Z,382.50
2019-04-01T10:25:15.585Z,382.50
2019-04-01T10:26:15.556Z,388.12
2019-04-01T10:27:15.557Z,388.12
2019-04-01T10:28:15.543Z,388.12
2019-04-01T10:29:15.522Z,388.12
2019-04-01T10:30:15.580Z,393.75
2019-04-01T10:31:15.533Z,393.75
2019-04-01T10:32:15.501Z,393.75
2019-04-01T10:33:15.482Z,393.75
2019-04-01T10:34:15.472Z,393.75
2019-04-01T10:35:15.472Z,393.75
2019-04-01T10:36:15.509Z,393.75
2019-04-01T10:37:15.438Z,393.75
2019-04-01T10:38:15.448Z,393.75
2019-04-01T10:39:15.434Z,399.38
2019-04-01T10:40:15.405Z,399.38
2019-04-01T10:41:15.428Z,399.38
2019-04-01T10:42:15.429Z,399.38
2019-04-01T10:43:15.371Z,399.38
2019-04-01T10:44:15.376Z,405.00
2019-04-01T10:45:15.355Z,405.00
2019-04-01T10:46:15.354Z,405.00
2019-04-01T10:47:15.363Z,405.00
2019-04-01T10:48:15.380Z,405.00
2019-04-01T10:49:15.348Z,410.62
2019-04-01T10:50:15.383Z,410.62
2019-04-01T10:51:15.335Z,410.62
2019-04-01T10:52:15.341Z,410.62
2019-04-01T10:53:15.307Z,410.62
2019-04-01T10:54:15.334Z,410.62
2019-04-01T10:55:15.274Z,410.62
2019-04-01T10:56:15.226Z,410.62
2019-04-01T10:57:15.242Z,410.62
2019-04-01T10:58:15.245Z,416.25
2019-04-01T10:59:15.210Z,416.25
2019-04-01T11:00:15.251Z,421.88
2019-04-01T11:01:15.233Z,416.25
2019-04-01T11:02:18.317Z,421.88
2019-04-01T11:03:15.166Z,421.88
2019-04-01T11:04:15.216Z,421.88
2019-04-01T11:05:15.165Z,421.88
2019-04-01T11:06:15.282Z,421.88
2019-04-01T11:07:15.206Z,421.88
2019-04-01T11:08:15.116Z,421.88
2019-04-01T11:09:15.181Z,433.12
2019-04-01T11:10:15.089Z,427.50
2019-04-01T11:11:15.093Z,427.50
2019-04-01T11:12:15.072Z,433.12
2019-04-01T11:13:15.080Z,433.12
2019-04-01T11:14:15.018Z,438.75
2019-04-01T11:15:15.802Z,433.12
2019-04-01T11:16:14.994Z,433.12
2019-04-01T11:17:15.401Z,438.75
2019-04-01T11:18:15.028Z,438.75
2019-04-01T11:19:14.963Z,438.75
2019-04-01T11:20:14.988Z,444.38
2019-04-01T11:21:14.947Z,444.38
2019-04-01T11:22:14.928Z,450.00
2019-04-01T11:23:14.924Z,455.62
2019-04-01T11:24:14.967Z,461.25
2019-04-01T11:25:14.908Z,478.12
2019-04-01T11:26:14.888Z,478.12
2019-04-01T11:27:14.870Z,483.75
2019-04-01T11:28:14.867Z,495.00
2019-04-01T11:29:14.861Z,506.25
2019-04-01T11:30:14.889Z,551.25
2019-04-01T11:31:14.872Z,590.62
2019-04-01T11:32:14.862Z,607.50
2019-04-01T11:33:14.853Z,607.50
2019-04-01T11:34:14.838Z,618.75
2019-04-01T11:35:16.145Z,630.00
2019-04-01T11:36:14.830Z,652.50
2019-04-01T11:37:14.926Z,714.38
2019-04-01T11:38:14.753Z,804.38
2019-04-01T11:39:14.779Z,871.88
2019-04-01T11:40:14.749Z,900.00
2019-04-01T11:41:14.752Z,922.50
2019-04-01T11:42:14.822Z,928.12
2019-04-01T11:43:14.734Z,916.88
2019-04-01T11:44:14.694Z,916.88
2019-04-01T11:45:14.671Z,945.00
2019-04-01T11:46:14.699Z,984.38
2019-04-01T11:47:14.699Z,995.62
2019-04-01T11:48:14.694Z,1001.25
2019-04-01T11:49:14.668Z,1023.75
2019-04-01T11:50:14.667Z,1046.25
2019-04-01T11:51:14.620Z,1068.75
2019-04-01T11:52:15.683Z,1108.12
2019-04-01T11:53:14.636Z,1125.00
2019-04-01T11:54:14.781Z,1130.62
2019-04-01T11:55:14.586Z,1153.12
2019-04-01T11:56:14.557Z,1158.75
2019-04-01T11:57:14.547Z,1203.75
2019-04-01T11:58:14.526Z,1186.88
2019-04-01T11:59:14.547Z,1215.00
2019-04-01T12:00:14.570Z,1243.12
2019-04-01T12:01:14.485Z,1271.25
2019-04-01T12:02:14.481Z,1293.75
2019-04-01T12:03:14.500Z,1282.50
2019-04-01T12:04:14.464Z,1271.25
2019-04-01T12:05:14.447Z,1282.50
2019-04-01T12:06:14.476Z,1310.62
2019-04-01T12:07:14.540Z,1344.38
2019-04-01T12:08:14.485Z,1333.12
2019-04-01T12:09:14.400Z,1327.50
2019-04-01T12:10:14.412Z,1327.50
2019-04-01T12:11:14.376Z,1372.50
2019-04-01T12:12:23.487Z,1372.50
2019-04-01T12:13:15.372Z,1344.38
2019-04-01T12:14:14.351Z,1378.12
2019-04-01T12:15:14.332Z,1411.88
2019-04-01T12:16:14.330Z,1445.62
2019-04-01T12:17:14.314Z,1445.62
2019-04-01T12:18:14.354Z,1445.62
2019-04-01T12:19:14.305Z,1423.12
2019-04-01T12:20:14.277Z,1468.12
2019-04-01T12:21:14.268Z,1507.50
2019-04-01T12:22:14.255Z,1473.75
2019-04-01T12:23:14.466Z,1468.12
2019-04-01T12:24:14.297Z,1451.25
2019-04-01T12:25:14.224Z,1440.00
2019-04-01T12:26:15.729Z,1513.12
2019-04-01T12:27:14.201Z,1552.50
2019-04-01T12:28:14.479Z,1524.38
2019-04-01T12:29:14.519Z,1507.50
2019-04-01T12:30:14.233Z,1603.12
2019-04-01T12:31:14.161Z,1591.88
2019-04-01T12:32:14.155Z,1563.75
2019-04-01T12:33:14.181Z,1625.62
2019-04-01T12:34:14.128Z,1631.25
2019-04-01T12:35:14.136Z,1603.12
2019-04-01T12:36:14.155Z,1614.38
2019-04-01T12:37:14.113Z,1665.00
2019-04-01T12:38:14.086Z,1681.88
2019-04-01T12:39:14.073Z,1659.38
2019-04-01T12:40:14.084Z,1715.62
2019-04-01T12:41:14.053Z,1788.75
2019-04-01T12:42:14.246Z,1710.00
2019-04-01T12:43:15.186Z,1653.75
2019-04-01T12:44:14.033Z,1732.50
2019-04-01T12:45:14.006Z,1766.25
2019-04-01T12:46:13.996Z,1760.62
2019-04-01T12:47:14.014Z,1726.88